createdAt,value
2022-11-11T00:00:23.547Z,5.20
2022-11-11T00:03:06.086Z,5.40
2022-11-11T00:05:48.074Z,5.07
2022-11-11T00:08:30.399Z,4.85
2022-11-11T00:11:14.074Z,5.85
2022-11-11T00:13:56.375Z,4.43
2022-11-11T00:16:56.889Z,5.32
2022-11-11T00:19:56.626Z,4.75
2022-11-11T00:22:52.263Z,5.22
2022-11-11T00:25:34.418Z,5.25
2022-11-11T00:28:18.926Z,5.63
2022-11-11T00:31:04.656Z,4.82
2022-11-11T00:33:48.038Z,5.30
2022-11-11T00:36:28.911Z,6.05
2022-11-11T00:39:10.699Z,6.20
2022-11-11T00:41:52.723Z,4.70
2022-11-11T00:44:34.721Z,5.40
2022-11-11T00:47:33.955Z,6.78
2022-11-11T00:50:38.434Z,6.18
2022-11-11T00:53:26.754Z,5.72
2022-11-11T00:56:09.376Z,5.43
2022-11-11T00:58:51.462Z,6.43
2022-11-11T01:01:34.140Z,5.72
2022-11-11T01:04:16.378Z,6.57
2022-11-11T01:06:59.539Z,5.50
2022-11-11T01:09:41.523Z,5.65
2022-11-11T01:12:23.432Z,6.15
2022-11-11T01:15:06.833Z,5.22
2022-11-11T01:17:48.832Z,6.25
2022-11-11T01:20:30.855Z,5.72
2022-11-11T01:23:15.439Z,5.60
2022-11-11T01:26:03.605Z,6.05
2022-11-11T01:28:46.013Z,6.43
2022-11-11T01:31:28.891Z,6.15
2022-11-11T01:34:11.055Z,7.38
2022-11-11T01:36:52.682Z,6.72
2022-11-11T01:39:36.179Z,5.57
2022-11-11T01:42:17.962Z,7.50
2022-11-11T01:45:00.314Z,6.75
2022-11-11T01:48:22.976Z,5.93
2022-11-11T01:51:07.376Z,7.28
2022-11-11T01:53:55.072Z,6.25
2022-11-11T01:56:39.867Z,6.70
2022-11-11T01:59:22.741Z,6.00
2022-11-11T02:02:11.024Z,6.20
2022-11-11T02:05:11.409Z,7.25
2022-11-11T02:07:53.513Z,6.20
2022-11-11T02:10:36.714Z,7.32
2022-11-11T02:13:37.803Z,6.85
2022-11-11T02:16:20.885Z,7.28
2022-11-11T02:19:03.578Z,7.32
2022-11-11T02:21:54.732Z,6.70
2022-11-11T02:24:39.669Z,6.90
2022-11-11T02:27:23.461Z,7.65
2022-11-11T02:30:15.802Z,6.82
2022-11-11T02:32:58.147Z,7.50
2022-11-11T02:35:45.736Z,6.43
2022-11-11T02:38:28.652Z,7.95
2022-11-11T02:41:30.114Z,7.53
2022-11-11T02:44:12.189Z,7.07
2022-11-11T02:46:54.628Z,6.68
2022-11-11T02:49:36.733Z,6.75
2022-11-11T02:52:18.570Z,6.50
2022-11-11T02:55:01.061Z,7.72
2022-11-11T02:57:44.267Z,6.40
2022-11-11T03:00:26.039Z,7.05
2022-11-11T03:03:08.289Z,6.97
2022-11-11T03:05:50.479Z,6.30
2022-11-11T03:08:32.415Z,7.38
2022-11-11T03:11:14.516Z,8.52
2022-11-11T03:13:58.507Z,6.63
2022-11-11T03:16:58.203Z,6.50
2022-11-11T03:19:40.161Z,7.05
2022-11-11T03:25:41.834Z,7.10
2022-11-11T03:28:24.982Z,8.77
2022-11-11T03:31:08.257Z,7.55
2022-11-11T03:33:50.417Z,8.25
2022-11-11T03:36:52.213Z,8.65
2022-11-11T03:39:33.044Z,8.30
2022-11-11T03:42:15.152Z,8.40
2022-11-11T03:44:57.170Z,8.52
2022-11-11T03:47:40.600Z,8.80
2022-11-11T03:50:22.996Z,9.25
2022-11-11T03:53:04.805Z,8.75
2022-11-11T03:55:47.032Z,8.70
2022-11-11T03:58:28.785Z,9.68
2022-11-11T04:01:30.889Z,8.02
2022-11-11T04:04:31.914Z,9.35
2022-11-11T04:07:31.590Z,8.30
2022-11-11T04:10:25.605Z,8.35
2022-11-11T04:13:25.798Z,8.13
2022-11-11T04:16:08.563Z,8.88
2022-11-11T04:19:09.951Z,9.13
2022-11-11T04:21:53.385Z,7.57
2022-11-11T04:24:53.362Z,8.40
2022-11-11T04:27:35.480Z,8.55
2022-11-11T04:30:16.742Z,8.80
2022-11-11T04:32:58.928Z,9.45
2022-11-11T04:35:40.864Z,9.65
2022-11-11T04:38:41.479Z,8.35
2022-11-11T04:41:25.730Z,9.38
2022-11-11T04:44:31.057Z,9.43
2022-11-11T04:47:12.893Z,8.38
2022-11-11T04:49:54.757Z,8.38
2022-11-11T04:52:36.822Z,8.38
2022-11-11T04:55:37.650Z,8.77
2022-11-11T04:58:21.730Z,8.48
2022-11-11T05:01:03.731Z,9.65
2022-11-11T05:03:44.682Z,8.20
2022-11-11T05:06:44.015Z,8.13
2022-11-11T05:09:26.043Z,8.35
2022-11-11T05:12:09.226Z,9.25
2022-11-11T05:15:08.734Z,9.30
2022-11-11T05:18:10.321Z,9.18
2022-11-11T05:21:09.912Z,12.73
2022-11-11T05:24:09.858Z,11.32
2022-11-11T05:26:51.945Z,10.68
2022-11-11T05:29:35.278Z,10.27
2022-11-11T05:32:20.915Z,9.63
2022-11-11T05:35:02.734Z,9.05
2022-11-11T05:38:05.273Z,9.30
2022-11-11T05:40:47.247Z,9.15
2022-11-11T05:43:29.385Z,9.57
2022-11-11T05:46:12.771Z,10.57
2022-11-11T05:49:12.036Z,9.63
2022-11-11T05:51:55.635Z,8.90
2022-11-11T05:54:37.590Z,10.07
2022-11-11T05:57:19.354Z,9.77
2022-11-11T06:00:01.363Z,9.57
2022-11-11T06:02:44.698Z,8.93
2022-11-11T06:05:26.601Z,9.10
2022-11-11T06:08:08.541Z,8.63
2022-11-11T06:10:51.413Z,10.23
2022-11-11T06:13:33.592Z,9.98
2022-11-11T06:16:15.591Z,9.00
2022-11-11T06:18:59.506Z,9.15
2022-11-11T06:22:00.851Z,9.63
2022-11-11T06:24:43.085Z,9.85
2022-11-11T06:27:25.058Z,9.75
2022-11-11T06:30:42.475Z,9.13
2022-11-11T06:33:11.193Z,8.75
2022-11-11T06:35:54.345Z,9.10
2022-11-11T06:38:36.043Z,8.80
2022-11-11T06:41:17.809Z,8.73
2022-11-11T06:43:59.872Z,9.07
2022-11-11T06:46:41.600Z,8.80
2022-11-11T06:49:23.227Z,8.02
2022-11-11T06:52:06.862Z,9.13
2022-11-11T06:54:48.922Z,8.98
2022-11-11T06:57:31.082Z,9.85
2022-11-11T07:00:14.650Z,8.18
2022-11-11T07:02:57.056Z,7.72
2022-11-11T07:05:38.846Z,8.73
2022-11-11T07:08:22.436Z,8.73
2022-11-11T07:11:12.591Z,7.75
2022-11-11T07:13:58.133Z,8.38
2022-11-11T07:16:40.034Z,8.32
2022-11-11T07:19:21.957Z,8.43
2022-11-11T07:22:03.903Z,8.27
2022-11-11T07:24:47.038Z,8.02
2022-11-11T07:27:28.959Z,8.85
2022-11-11T07:30:13.296Z,8.10
2022-11-11T07:32:55.604Z,8.40
2022-11-11T07:35:37.589Z,8.65
2022-11-11T07:38:19.765Z,8.25
2022-11-11T07:41:02.899Z,8.60
2022-11-11T07:43:44.735Z,8.43
2022-11-11T07:46:26.985Z,8.90
2022-11-11T07:49:08.964Z,8.93
2022-11-11T07:51:51.049Z,8.18
2022-11-11T07:54:33.070Z,8.82
2022-11-11T07:57:16.133Z,8.50
2022-11-11T07:59:57.914Z,8.10
2022-11-11T08:02:39.971Z,7.90
2022-11-11T08:05:21.699Z,7.28
2022-11-11T08:08:05.374Z,8.27
2022-11-11T08:10:47.197Z,7.80
2022-11-11T08:13:41.567Z,7.80
2022-11-11T08:16:23.427Z,7.75
2022-11-11T08:19:05.236Z,8.45
2022-11-11T08:21:47.229Z,7.90
2022-11-11T08:25:02.385Z,7.70
2022-11-11T08:27:30.639Z,7.65
2022-11-11T08:30:16.100Z,7.85
2022-11-11T08:33:31.425Z,8.30
2022-11-11T08:36:05.621Z,7.72
2022-11-11T08:38:47.719Z,7.03
2022-11-11T08:41:29.713Z,7.78
2022-11-11T08:44:11.838Z,6.95
2022-11-11T08:46:55.370Z,6.70
2022-11-11T08:49:37.235Z,6.78
2022-11-11T08:52:19.749Z,6.32
2022-11-11T08:55:01.577Z,6.47
2022-11-11T08:57:44.081Z,6.25
2022-11-11T09:00:26.663Z,5.80
2022-11-11T09:03:12.940Z,5.53
2022-11-11T09:05:54.688Z,5.72
2022-11-11T09:08:36.579Z,5.47
2022-11-11T09:11:18.677Z,5.78
2022-11-11T09:14:00.947Z,5.93
2022-11-11T09:16:42.602Z,6.35
2022-11-11T09:19:26.050Z,5.68
2022-11-11T09:22:08.178Z,6.35
2022-11-11T09:24:49.736Z,6.38
2022-11-11T09:27:31.806Z,5.55
2022-11-11T09:30:14.611Z,5.45
2022-11-11T09:32:56.768Z,5.82
2022-11-11T09:35:40.066Z,6.60
2022-11-11T09:38:21.862Z,4.85
2022-11-11T09:41:17.113Z,5.35
2022-11-11T09:44:02.082Z,5.63
2022-11-11T09:46:54.275Z,5.10
2022-11-11T09:49:50.972Z,5.72
2022-11-11T09:52:41.247Z,4.65
2022-11-11T09:55:28.424Z,5.22
2022-11-11T09:58:17.449Z,5.50
2022-11-11T10:01:06.383Z,5.32
2022-11-11T10:03:56.215Z,5.30
2022-11-11T10:06:38.394Z,5.40
2022-11-11T10:09:28.901Z,5.00
2022-11-11T10:12:13.780Z,5.53
2022-11-11T10:14:55.980Z,4.93
2022-11-11T10:17:47.676Z,5.05
2022-11-11T10:20:33.230Z,4.88
2022-11-11T10:23:17.507Z,10.20
2022-11-11T10:26:08.415Z,6.40
2022-11-11T10:28:52.388Z,5.65
2022-11-11T10:31:34.350Z,4.95
2022-11-11T10:34:19.281Z,4.72
2022-11-11T10:37:02.570Z,4.80
2022-11-11T10:40:00.256Z,4.35
2022-11-11T10:42:44.124Z,5.10
2022-11-11T10:45:31.688Z,4.70
2022-11-11T10:48:19.609Z,4.60
2022-11-11T10:51:04.317Z,4.47
2022-11-11T10:53:56.005Z,4.38
2022-11-11T10:56:44.992Z,4.70
2022-11-11T10:59:35.282Z,4.80
2022-11-11T11:02:23.542Z,4.78
2022-11-11T11:05:11.787Z,4.20
2022-11-11T11:07:59.000Z,4.03
2022-11-11T11:10:46.193Z,4.28
2022-11-11T11:13:36.599Z,4.13
2022-11-11T11:16:25.311Z,4.32
2022-11-11T11:19:18.841Z,4.82
2022-11-11T11:22:02.850Z,4.60
2022-11-11T11:24:44.625Z,4.18
2022-11-11T11:27:28.303Z,3.95
2022-11-11T11:30:17.349Z,4.22
2022-11-11T11:33:02.965Z,4.38
2022-11-11T11:35:46.182Z,4.15
2022-11-11T11:38:44.224Z,4.00
2022-11-11T11:41:39.432Z,4.03
2022-11-11T11:44:28.911Z,4.43
2022-11-11T11:47:32.511Z,4.57
2022-11-11T11:50:32.484Z,4.57
2022-11-11T11:53:29.856Z,4.40
2022-11-11T11:56:21.632Z,3.78
2022-11-11T11:59:12.415Z,4.35
2022-11-11T12:02:05.877Z,4.60
2022-11-11T12:05:04.717Z,4.22
2022-11-11T12:08:03.392Z,4.43
2022-11-11T12:10:54.251Z,4.75
2022-11-11T12:13:48.224Z,4.15
2022-11-11T12:16:43.785Z,4.13
2022-11-11T12:19:48.732Z,3.95
2022-11-11T12:22:46.424Z,3.72
2022-11-11T12:25:50.340Z,4.15
2022-11-11T12:28:56.615Z,3.55
2022-11-11T12:32:01.977Z,4.10
2022-11-11T12:35:17.566Z,3.55
2022-11-11T12:38:14.933Z,4.05
2022-11-11T12:41:09.099Z,3.65
2022-11-11T12:44:02.544Z,3.88
2022-11-11T12:46:56.131Z,3.67
2022-11-11T12:49:53.405Z,3.65
2022-11-11T12:52:45.586Z,4.13
2022-11-11T12:55:38.055Z,4.13
2022-11-11T12:58:34.268Z,3.90
2022-11-11T13:01:29.917Z,3.83
2022-11-11T13:04:45.247Z,4.60
2022-11-11T13:08:10.068Z,3.70
2022-11-11T13:11:01.239Z,3.85
2022-11-11T13:14:01.148Z,4.05
2022-11-11T13:16:44.031Z,3.70
2022-11-11T13:19:35.929Z,3.80
2022-11-11T13:22:24.899Z,3.50
2022-11-11T13:25:10.070Z,3.50
2022-11-11T13:28:00.054Z,3.67
2022-11-11T13:30:57.475Z,3.35
2022-11-11T13:33:43.960Z,3.25
2022-11-11T13:36:29.426Z,3.00
2022-11-11T13:39:27.727Z,3.47
2022-11-11T13:42:14.698Z,3.78
2022-11-11T13:45:01.078Z,3.53
2022-11-11T13:47:48.613Z,3.78
2022-11-11T13:50:33.402Z,3.10
2022-11-11T13:53:27.698Z,3.67
2022-11-11T13:56:11.948Z,3.30
2022-11-11T13:58:55.391Z,3.47
2022-11-11T14:01:42.769Z,3.55
2022-11-11T14:04:26.327Z,3.63
2022-11-11T14:07:09.515Z,3.38
2022-11-11T14:10:03.456Z,3.78
2022-11-11T14:12:46.870Z,3.75
2022-11-11T14:15:44.005Z,4.10
2022-11-11T14:18:44.524Z,3.35
2022-11-11T14:21:53.160Z,3.35
2022-11-11T14:24:40.532Z,3.65
2022-11-11T14:27:29.579Z,3.47
2022-11-11T14:30:29.303Z,3.35
2022-11-11T14:33:25.371Z,4.00
2022-11-11T14:36:19.723Z,5.00
2022-11-11T14:39:12.168Z,3.85
2022-11-11T14:41:56.213Z,3.35
2022-11-11T14:44:45.449Z,3.35
2022-11-11T14:47:35.198Z,3.15
2022-11-11T14:50:45.363Z,3.72
2022-11-11T14:53:38.118Z,3.10
2022-11-11T14:56:22.049Z,3.63
2022-11-11T14:59:09.173Z,3.70
2022-11-11T15:01:51.802Z,4.15
2022-11-11T15:04:42.095Z,3.35
2022-11-11T15:08:00.522Z,3.40
2022-11-11T15:11:08.242Z,3.40
2022-11-11T15:14:13.016Z,3.28
2022-11-11T15:17:18.411Z,3.78
2022-11-11T15:20:27.855Z,3.47
2022-11-11T15:23:26.222Z,3.97
2022-11-11T15:26:17.510Z,3.50
2022-11-11T15:29:35.404Z,4.00
2022-11-11T15:32:34.216Z,3.47
2022-11-11T15:35:36.639Z,3.85
2022-11-11T15:38:20.820Z,4.13
2022-11-11T15:41:02.925Z,3.60
2022-11-11T15:43:45.054Z,3.40
2022-11-11T15:46:31.449Z,3.55
2022-11-11T15:49:15.976Z,3.67
2022-11-11T15:51:58.385Z,3.40
2022-11-11T15:54:40.631Z,3.38
2022-11-11T15:57:29.360Z,3.47
2022-11-11T16:00:30.284Z,4.10
2022-11-11T16:03:20.106Z,3.70
2022-11-11T16:06:04.109Z,3.78
2022-11-11T16:08:48.655Z,3.83
2022-11-11T16:11:30.998Z,4.05
2022-11-11T16:14:28.399Z,4.00
2022-11-11T16:17:11.005Z,4.00
2022-11-11T16:19:54.927Z,4.00
2022-11-11T16:22:38.785Z,4.00
2022-11-11T16:25:23.340Z,3.92
2022-11-11T16:28:06.190Z,4.68
2022-11-11T16:30:48.222Z,4.10
2022-11-11T16:33:35.993Z,4.40
2022-11-11T16:36:19.426Z,4.32
2022-11-11T16:39:15.667Z,4.47
2022-11-11T16:41:59.108Z,3.92
2022-11-11T16:44:45.345Z,3.80
2022-11-11T16:47:50.658Z,4.07
2022-11-11T16:50:33.323Z,3.83
2022-11-11T16:53:33.599Z,4.18
2022-11-11T16:56:25.158Z,3.90
2022-11-11T16:59:12.446Z,3.67
2022-11-11T17:01:55.402Z,3.67
2022-11-11T17:04:49.308Z,4.03
2022-11-11T17:07:33.551Z,3.50
2022-11-11T17:10:21.006Z,4.57
2022-11-11T17:13:04.928Z,4.53
2022-11-11T17:15:47.047Z,5.05
2022-11-11T17:18:28.842Z,5.60
2022-11-11T17:21:13.562Z,5.85
2022-11-11T17:23:55.702Z,6.15
2022-11-11T17:26:39.179Z,6.15
2022-11-11T17:29:21.303Z,5.97
2022-11-11T17:32:03.120Z,5.20
2022-11-11T17:34:45.007Z,5.93
2022-11-11T17:37:26.790Z,5.50
2022-11-11T17:40:10.639Z,6.55
2022-11-11T17:42:53.650Z,7.45
2022-11-11T17:45:35.654Z,9.95
2022-11-11T17:48:17.410Z,10.30
2022-11-11T17:50:59.946Z,7.68
2022-11-11T17:53:41.857Z,8.07
2022-11-11T17:56:26.600Z,7.53
2022-11-11T17:59:09.875Z,9.00
2022-11-11T18:01:51.858Z,7.50
2022-11-11T18:04:34.024Z,8.02
2022-11-11T18:07:16.169Z,7.43
2022-11-11T18:09:58.699Z,6.85
2022-11-11T18:12:41.374Z,6.32
2022-11-11T18:15:25.461Z,6.88
2022-11-11T18:18:07.620Z,6.90
2022-11-11T18:20:50.428Z,6.28
2022-11-11T18:23:34.228Z,5.88
2022-11-11T18:26:16.226Z,6.15
2022-11-11T18:28:58.313Z,6.40
2022-11-11T18:31:41.751Z,6.32
2022-11-11T18:34:23.506Z,5.95
2022-11-11T18:37:05.374Z,5.60
2022-11-11T18:39:47.201Z,5.72
2022-11-11T18:42:29.158Z,6.30
2022-11-11T18:45:11.369Z,5.53
2022-11-11T18:47:54.772Z,5.85
2022-11-11T18:50:36.382Z,5.65
2022-11-11T18:53:18.159Z,6.07
2022-11-11T18:56:05.978Z,7.32
2022-11-11T18:58:53.219Z,8.38
2022-11-11T19:01:39.973Z,5.90
2022-11-11T19:04:23.450Z,7.88
2022-11-11T19:07:05.350Z,7.07
2022-11-11T19:09:47.473Z,6.50
2022-11-11T19:12:29.641Z,5.82
2022-11-11T19:15:12.400Z,5.65
2022-11-11T19:17:54.516Z,5.15
2022-11-11T19:20:38.593Z,6.50
2022-11-11T19:23:20.693Z,7.22
2022-11-11T19:26:02.790Z,6.05
2022-11-11T19:28:45.084Z,6.22
2022-11-11T19:31:29.937Z,6.97
2022-11-11T19:34:12.663Z,8.38
2022-11-11T19:36:55.927Z,10.10
2022-11-11T19:39:39.218Z,10.52
2022-11-11T19:42:21.404Z,7.25
2022-11-11T19:45:03.694Z,7.05
2022-11-11T19:47:45.739Z,6.32
2022-11-11T19:50:27.586Z,6.13
2022-11-11T19:53:12.970Z,5.38
2022-11-11T19:55:59.332Z,5.10
2022-11-11T19:58:42.623Z,4.20
2022-11-11T20:01:27.181Z,4.97
2022-11-11T20:04:09.411Z,4.80
2022-11-11T20:06:51.697Z,5.28
2022-11-11T20:09:35.107Z,5.38
2022-11-11T20:12:17.240Z,5.32
2022-11-11T20:14:59.409Z,5.00
2022-11-11T20:17:41.586Z,5.30
2022-11-11T20:20:24.011Z,5.38
2022-11-11T20:23:06.841Z,5.75
2022-11-11T20:25:49.962Z,5.15
2022-11-11T20:28:31.737Z,6.10
2022-11-11T20:31:16.074Z,5.65
2022-11-11T20:33:58.361Z,5.60
2022-11-11T20:36:40.255Z,5.40
2022-11-11T20:39:22.364Z,5.60
2022-11-11T20:42:05.683Z,4.90
2022-11-11T20:44:48.007Z,4.95
2022-11-11T20:47:34.151Z,5.50
2022-11-11T20:50:17.363Z,5.43
2022-11-11T20:52:59.033Z,5.43
2022-11-11T20:55:40.645Z,5.05
2022-11-11T20:58:24.005Z,5.53
2022-11-11T21:01:09.393Z,5.72
2022-11-11T21:03:55.714Z,4.88
2022-11-11T21:06:39.267Z,5.40
2022-11-11T21:09:21.705Z,4.85
2022-11-11T21:12:03.614Z,4.47
2022-11-11T21:14:47.954Z,4.47
2022-11-11T21:17:30.010Z,4.47
2022-11-11T21:20:12.867Z,4.90
2022-11-11T21:22:54.759Z,4.63
2022-11-11T21:25:36.754Z,4.63
2022-11-11T21:28:18.973Z,4.55
2022-11-11T21:31:03.897Z,4.30
2022-11-11T21:33:50.305Z,4.95
2022-11-11T21:36:35.531Z,5.28
2022-11-11T21:39:17.747Z,4.40
2022-11-11T21:42:00.749Z,4.63
2022-11-11T21:44:42.794Z,4.97
2022-11-11T21:47:26.199Z,4.55
2022-11-11T21:50:08.815Z,4.88
2022-11-11T21:52:50.741Z,4.93
2022-11-11T21:55:32.728Z,4.78
2022-11-11T21:58:14.838Z,5.13
2022-11-11T22:00:57.167Z,4.53
2022-11-11T22:03:42.925Z,5.35
2022-11-11T22:06:24.709Z,4.78
2022-11-11T22:09:06.963Z,5.38
2022-11-11T22:11:48.963Z,4.75
2022-11-11T22:14:30.866Z,4.85
2022-11-11T22:17:13.082Z,6.60
2022-11-11T22:19:56.415Z,6.13
2022-11-11T22:22:38.139Z,6.25
2022-11-11T22:25:20.195Z,6.57
2022-11-11T22:28:02.173Z,6.65
2022-11-11T22:30:44.203Z,6.05
2022-11-11T22:33:26.289Z,6.70
2022-11-11T22:36:12.386Z,6.10
2022-11-11T22:38:55.268Z,6.82
2022-11-11T22:41:40.348Z,6.90
2022-11-11T22:44:22.456Z,7.05
2022-11-11T22:47:04.391Z,7.35
2022-11-11T22:49:46.357Z,6.90
2022-11-11T22:52:29.819Z,7.18
2022-11-11T22:55:11.731Z,7.07
2022-11-11T22:57:53.857Z,6.70
2022-11-11T23:00:35.897Z,6.97
2022-11-11T23:03:17.667Z,6.97
2022-11-11T23:06:03.664Z,6.30
2022-11-11T23:08:47.938Z,7.68
2022-11-11T23:11:32.205Z,8.02
2022-11-11T23:14:16.778Z,7.15
2022-11-11T23:16:58.677Z,7.75
2022-11-11T23:19:40.141Z,6.95
2022-11-11T23:22:22.040Z,7.32
2022-11-11T23:25:06.444Z,7.93
2022-11-11T23:27:48.166Z,7.80
2022-11-11T23:30:30.208Z,7.20
2022-11-11T23:33:12.215Z,7.35
2022-11-11T23:35:54.783Z,6.90
2022-11-11T23:38:38.121Z,7.00
2022-11-11T23:41:21.397Z,6.90
2022-11-11T23:44:03.001Z,6.70
2022-11-11T23:46:45.035Z,6.32
2022-11-11T23:49:27.051Z,6.10
2022-11-11T23:52:08.890Z,6.50
2022-11-11T23:54:50.581Z,6.88
2022-11-11T23:57:33.850Z,6.40
